world map with LIVT marked

LIVT - Location

This information may not be accurate or current and is not valid for navigation or flight planning. No warranty of fitness for any purpose is made or implied.

flag of Italy

Donate via PayPal

Additional information is available on the NEW Great Circle Mapper

Location
City:  Trieste, Italy
ICAO:LIVT

Details
Latitude:45°39'N (45.650)
Longitude:13°45'E (13.750)
Elevation:66 ft (20 m)

Time
Timezone:UTC+1 (DST+4)
Local Time:

Weather
METAR:LIVT  041355Z 04015G31KT CAVOK 10/M04 Q1023 RMK SKC QUK 3 QUL 1 NE VIS MAR 25 KM VIS MIN 9999

Related Locations
Nearby:
Farthest:CHT: 11922 mi / 19186 km
Waitangi [Tuuta], CIT, NZ

Find:

   beyond  
but within

Other Information
Maps:
Sources:

  


 


Great Circle Mapper   Great Circle Mapper
Great Circle Mapper FAQ   Great Circle Mapper FAQ
  Karl's Home Page
KLSē   KLSē Home
   GC on Facebook
Airlines of the World   Airlines of the World
Donate via PayPal


Copyright © 2004-2019, Karl L. Swartz. All rights reserved.
All trademarks mentioned herein belong to their respective owners.

Please see credits for attribution and copyright information.

Karl Swartz <karl@kls2.com>
  Powered by FreeBSD
Valid HTML 4.01!
Labeled with ICRA
hCard Microformat
Geo Microformat